createdAt,value
2018-07-12T00:00:48.081Z,18.30
2018-07-12T00:03:15.690Z,18.20
2018-07-12T00:05:43.365Z,17.90
2018-07-12T00:08:11.011Z,18.00
2018-07-12T00:10:38.809Z,18.30
2018-07-12T00:13:06.469Z,18.30
2018-07-12T00:15:34.131Z,18.40
2018-07-12T00:18:01.733Z,18.30
2018-07-12T00:20:29.395Z,17.80
2018-07-12T00:22:57.049Z,17.90
2018-07-12T00:25:24.690Z,17.90
2018-07-12T00:27:52.388Z,18.00
2018-07-12T00:30:19.987Z,17.90
2018-07-12T00:32:47.643Z,18.00
2018-07-12T00:35:15.331Z,17.90
2018-07-12T00:37:42.974Z,18.50
2018-07-12T00:40:10.637Z,18.50
2018-07-12T00:42:38.288Z,18.20
2018-07-12T00:45:05.946Z,17.80
2018-07-12T00:47:33.636Z,18.30
2018-07-12T00:50:01.269Z,18.00
2018-07-12T00:52:28.936Z,17.80
2018-07-12T00:54:56.931Z,17.60
2018-07-12T00:57:24.601Z,17.70
2018-07-12T00:59:52.239Z,17.80
2018-07-12T01:02:19.903Z,17.50
2018-07-12T01:04:47.569Z,17.60
2018-07-12T01:07:15.242Z,17.70
2018-07-12T01:09:42.901Z,17.80
2018-07-12T01:12:10.581Z,18.30
2018-07-12T01:14:38.240Z,17.70
2018-07-12T01:17:05.953Z,17.80
2018-07-12T01:19:33.608Z,17.60
2018-07-12T01:22:01.243Z,17.20
2018-07-12T01:24:28.844Z,16.90
2018-07-12T01:26:56.459Z,17.20
2018-07-12T01:29:24.090Z,17.50
2018-07-12T01:31:51.724Z,17.40
2018-07-12T01:34:19.374Z,17.30
2018-07-12T01:36:46.992Z,17.60
2018-07-12T01:39:14.628Z,17.30
2018-07-12T01:41:42.273Z,17.20
2018-07-12T01:44:09.966Z,17.50
2018-07-12T01:46:37.610Z,17.10
2018-07-12T01:49:05.232Z,17.10
2018-07-12T01:51:32.871Z,17.10
2018-07-12T01:54:00.520Z,17.00
2018-07-12T01:56:28.157Z,17.10
2018-07-12T01:58:55.752Z,16.60
2018-07-12T02:01:23.423Z,16.70
2018-07-12T02:03:51.114Z,16.80
2018-07-12T02:06:18.749Z,16.80
2018-07-12T02:08:46.371Z,17.00
2018-07-12T02:11:14.051Z,17.20
2018-07-12T02:13:41.718Z,17.00
2018-07-12T02:16:09.377Z,16.90
2018-07-12T02:18:37.114Z,16.80
2018-07-12T02:21:04.725Z,16.80
2018-07-12T02:23:32.343Z,17.10
2018-07-12T02:25:59.969Z,16.90
2018-07-12T02:28:27.632Z,16.70
2018-07-12T02:30:55.295Z,16.50
2018-07-12T02:33:22.953Z,16.50
2018-07-12T02:35:50.578Z,16.50
2018-07-12T02:38:18.188Z,16.60
2018-07-12T02:40:45.862Z,16.30
2018-07-12T02:43:13.467Z,15.90
2018-07-12T02:45:41.132Z,15.90
2018-07-12T02:48:08.766Z,15.90
2018-07-12T02:50:36.426Z,16.20
2018-07-12T02:53:04.104Z,15.90
2018-07-12T02:55:31.792Z,15.90
2018-07-12T02:57:59.456Z,15.80
2018-07-12T03:00:27.437Z,15.90
2018-07-12T03:02:55.067Z,16.00
2018-07-12T03:05:22.681Z,15.60
2018-07-12T03:07:50.311Z,15.90
2018-07-12T03:10:18.123Z,15.80
2018-07-12T03:12:45.727Z,15.70
2018-07-12T03:15:13.431Z,15.80
2018-07-12T03:17:41.098Z,15.70
2018-07-12T03:20:08.929Z,15.90
2018-07-12T03:22:36.546Z,15.60
2018-07-12T03:25:04.182Z,15.40
2018-07-12T03:27:31.837Z,15.50
2018-07-12T03:29:59.499Z,15.40
2018-07-12T03:32:27.113Z,15.40
2018-07-12T03:34:54.762Z,15.40
2018-07-12T03:37:22.393Z,15.40
2018-07-12T03:39:50.019Z,15.30
2018-07-12T03:42:17.690Z,15.30
2018-07-12T03:44:45.366Z,15.30
2018-07-12T03:47:12.984Z,15.40
2018-07-12T03:49:40.614Z,15.30
2018-07-12T03:52:08.237Z,15.40
2018-07-12T03:54:35.905Z,15.30
2018-07-12T03:57:03.515Z,15.40
2018-07-12T03:59:31.224Z,15.40
2018-07-12T04:01:58.866Z,15.70
2018-07-12T04:04:26.501Z,15.70
2018-07-12T04:06:54.357Z,15.70
2018-07-12T04:09:21.993Z,15.70
2018-07-12T04:11:49.669Z,15.80
2018-07-12T04:14:17.296Z,15.60
2018-07-12T04:16:44.930Z,15.60
2018-07-12T04:19:12.623Z,15.80
2018-07-12T04:21:40.273Z,15.60
2018-07-12T04:24:08.197Z,15.60
2018-07-12T04:26:35.834Z,15.50
2018-07-12T04:29:03.467Z,15.50
2018-07-12T04:31:31.147Z,15.50
2018-07-12T04:33:58.787Z,15.40
2018-07-12T04:36:26.457Z,15.40
2018-07-12T04:38:54.060Z,15.30
2018-07-12T04:41:21.682Z,15.50
2018-07-12T04:43:49.281Z,15.50
2018-07-12T04:46:16.930Z,15.40
2018-07-12T04:48:44.610Z,15.50
2018-07-12T04:51:12.282Z,15.30
2018-07-12T04:53:39.899Z,15.40
2018-07-12T04:56:07.558Z,15.30
2018-07-12T04:58:35.249Z,15.30
2018-07-12T05:01:02.884Z,15.30
2018-07-12T05:03:30.562Z,15.30
2018-07-12T05:05:58.218Z,15.30
2018-07-12T05:08:25.853Z,15.40
2018-07-12T05:10:53.495Z,15.30
2018-07-12T05:13:21.159Z,15.40
2018-07-12T05:15:48.806Z,15.50
2018-07-12T05:18:16.490Z,15.50
2018-07-12T05:20:44.121Z,15.50
2018-07-12T05:23:11.869Z,15.50
2018-07-12T05:25:39.485Z,15.50
2018-07-12T05:28:07.123Z,15.60
2018-07-12T05:30:34.791Z,15.60
2018-07-12T05:33:02.389Z,15.70
2018-07-12T05:35:31.525Z,15.80
2018-07-12T05:38:00.646Z,16.10
2018-07-12T05:40:29.777Z,16.40
2018-07-12T05:42:58.952Z,16.30
2018-07-12T05:45:28.157Z,16.70
2018-07-12T05:47:57.310Z,16.90
2018-07-12T05:50:26.491Z,17.20
2018-07-12T05:52:55.675Z,17.50
2018-07-12T05:55:24.998Z,17.60
2018-07-12T05:57:54.993Z,17.80
2018-07-12T06:00:24.145Z,18.10
2018-07-12T06:02:53.345Z,18.40
2018-07-12T06:05:22.472Z,18.80
2018-07-12T06:07:51.726Z,19.20
2018-07-12T06:10:20.881Z,19.50
2018-07-12T06:12:50.066Z,19.80
2018-07-12T06:15:19.211Z,19.60
2018-07-12T06:17:48.353Z,19.90
2018-07-12T06:20:17.552Z,20.30
2018-07-12T06:22:46.781Z,20.50
2018-07-12T06:25:15.913Z,20.50
2018-07-12T06:27:45.088Z,20.70
2018-07-12T06:30:14.226Z,20.90
2018-07-12T06:32:43.424Z,20.90
2018-07-12T06:35:12.600Z,21.20
2018-07-12T06:37:41.761Z,21.40
2018-07-12T06:40:10.996Z,21.40
2018-07-12T06:42:40.152Z,21.30
2018-07-12T06:45:09.304Z,21.60
2018-07-12T06:47:38.442Z,21.00
2018-07-12T06:50:07.558Z,21.20
2018-07-12T06:52:36.674Z,20.70
2018-07-12T06:55:05.806Z,20.90
2018-07-12T06:57:34.989Z,20.80
2018-07-12T07:00:04.155Z,21.00
2018-07-12T07:02:33.324Z,20.90
2018-07-12T07:05:02.547Z,21.10
2018-07-12T07:07:31.689Z,21.30
2018-07-12T07:10:00.776Z,21.30
2018-07-12T07:12:29.964Z,21.20
2018-07-12T07:14:59.128Z,21.30
2018-07-12T07:17:28.346Z,21.40
2018-07-12T07:19:57.513Z,21.30
2018-07-12T07:22:26.612Z,21.00
2018-07-12T07:24:55.736Z,21.00
2018-07-12T07:27:24.839Z,20.90
2018-07-12T07:29:54.020Z,21.20
2018-07-12T07:32:23.260Z,21.40
2018-07-12T07:34:52.390Z,21.80
2018-07-12T07:37:21.541Z,21.70
2018-07-12T07:39:51.057Z,21.50
2018-07-12T07:42:20.278Z,21.40
2018-07-12T07:44:49.471Z,21.60
2018-07-12T07:47:18.626Z,21.40
2018-07-12T07:49:48.389Z,21.40
2018-07-12T07:52:17.553Z,21.40
2018-07-12T07:54:46.718Z,21.10
2018-07-12T07:57:15.831Z,20.50
2018-07-12T07:59:45.001Z,20.20
2018-07-12T08:02:14.150Z,19.30
2018-07-12T08:04:43.297Z,19.40
2018-07-12T08:07:12.474Z,19.30
2018-07-12T08:09:41.627Z,19.40
2018-07-12T08:12:10.777Z,18.90
2018-07-12T08:14:39.875Z,18.80
2018-07-12T08:17:08.997Z,18.40
2018-07-12T08:19:38.185Z,19.00
2018-07-12T08:22:09.150Z,19.20
2018-07-12T08:24:38.292Z,18.70
2018-07-12T08:27:07.443Z,18.60
2018-07-12T08:29:36.628Z,18.50
2018-07-12T08:32:06.014Z,18.70
2018-07-12T08:34:36.603Z,18.60
2018-07-12T08:37:05.843Z,18.50
2018-07-12T08:39:35.235Z,18.70
2018-07-12T08:42:04.106Z,18.70
2018-07-12T08:44:33.445Z,18.90
2018-07-12T08:47:02.276Z,19.00
2018-07-12T08:49:31.529Z,19.10
2018-07-12T08:52:00.434Z,19.20
2018-07-12T08:54:29.364Z,19.40
2018-07-12T08:56:58.236Z,19.70
2018-07-12T08:59:27.128Z,20.10
2018-07-12T09:01:56.031Z,20.50
2018-07-12T09:04:24.894Z,20.50
2018-07-12T09:06:54.414Z,20.60
2018-07-12T09:09:23.278Z,20.50
2018-07-12T09:11:52.124Z,20.40
2018-07-12T09:14:20.948Z,20.20
2018-07-12T09:16:49.821Z,19.90
2018-07-12T09:19:18.697Z,19.80
2018-07-12T09:21:47.553Z,19.70
2018-07-12T09:24:16.407Z,19.70
2018-07-12T09:26:45.662Z,19.50
2018-07-12T09:29:14.576Z,19.30
2018-07-12T09:31:43.414Z,19.40
2018-07-12T09:34:12.255Z,19.30
2018-07-12T09:36:41.127Z,19.00
2018-07-12T09:39:10.015Z,19.20
2018-07-12T09:41:38.873Z,19.40
2018-07-12T09:44:07.770Z,19.70
2018-07-12T09:46:36.677Z,19.40
2018-07-12T09:49:05.608Z,19.30
2018-07-12T09:51:34.404Z,19.10
2018-07-12T09:54:03.084Z,19.20
2018-07-12T09:56:43.389Z,19.10
2018-07-12T09:59:11.972Z,19.20
2018-07-12T10:01:46.124Z,19.10
2018-07-12T10:04:14.823Z,19.20
2018-07-12T10:06:49.106Z,19.20
2018-07-12T10:09:23.552Z,19.20
2018-07-12T10:13:01.608Z,19.50
2018-07-12T10:15:35.830Z,19.90
2018-07-12T10:18:09.989Z,20.10
2018-07-12T10:20:38.666Z,20.60
2018-07-12T10:23:07.337Z,20.90
2018-07-12T10:25:36.052Z,21.20
2018-07-12T10:28:04.762Z,20.80
2018-07-12T10:30:33.460Z,20.60
2018-07-12T10:33:02.137Z,20.60
2018-07-12T10:35:30.801Z,20.20
2018-07-12T10:37:59.547Z,20.10
2018-07-12T10:40:28.216Z,20.60
2018-07-12T10:42:56.908Z,20.90
2018-07-12T10:45:25.568Z,20.80
2018-07-12T10:47:54.225Z,21.20
2018-07-12T10:50:22.941Z,21.90
2018-07-12T10:52:51.617Z,22.80
2018-07-12T10:55:20.288Z,23.60
2018-07-12T10:57:48.978Z,24.60
2018-07-12T11:00:17.702Z,24.70
2018-07-12T11:02:46.391Z,24.20
2018-07-12T11:05:15.164Z,24.30
2018-07-12T11:07:43.849Z,24.30
2018-07-12T11:10:12.547Z,24.30
2018-07-12T11:12:41.226Z,24.20
2018-07-12T11:15:09.893Z,23.70
2018-07-12T11:17:38.601Z,23.50
2018-07-12T11:20:07.254Z,23.70
2018-07-12T11:22:35.971Z,23.70
2018-07-12T11:25:04.688Z,23.20
2018-07-12T11:27:33.365Z,23.00
2018-07-12T11:30:02.074Z,22.50
2018-07-12T11:32:30.744Z,22.50
2018-07-12T11:34:59.428Z,22.60
2018-07-12T11:37:28.334Z,22.60
2018-07-12T11:39:57.069Z,22.40
2018-07-12T11:42:25.754Z,22.70
2018-07-12T11:44:54.411Z,22.40
2018-07-12T11:47:23.130Z,21.70
2018-07-12T11:49:51.850Z,21.70
2018-07-12T11:52:20.684Z,21.00
2018-07-12T11:54:49.369Z,21.00
2018-07-12T11:57:18.068Z,20.70
2018-07-12T11:59:47.577Z,20.90
2018-07-12T12:02:16.865Z,21.20
2018-07-12T12:04:45.574Z,21.60
2018-07-12T12:07:14.301Z,21.50
2018-07-12T12:09:42.969Z,21.60
2018-07-12T12:12:11.625Z,21.50
2018-07-12T12:14:40.331Z,21.20
2018-07-12T12:17:09.107Z,21.10
2018-07-12T12:19:37.790Z,21.40
2018-07-12T12:22:06.490Z,21.40
2018-07-12T12:24:35.152Z,21.50
2018-07-12T12:27:03.855Z,21.90
2018-07-12T12:29:32.517Z,21.70
2018-07-12T12:32:01.194Z,21.70
2018-07-12T12:34:29.867Z,22.20
2018-07-12T12:36:58.536Z,22.80
2018-07-12T12:39:27.237Z,22.30
2018-07-12T12:41:55.962Z,22.50
2018-07-12T12:44:24.654Z,22.50
2018-07-12T12:46:53.322Z,22.60
2018-07-12T12:49:22.005Z,22.90
2018-07-12T12:51:50.663Z,22.30
2018-07-12T12:54:19.993Z,22.30
2018-07-12T12:56:48.666Z,22.40
2018-07-12T12:59:17.378Z,22.20
2018-07-12T13:01:46.052Z,22.50
2018-07-12T13:04:14.724Z,22.70
2018-07-12T13:06:43.389Z,23.00
2018-07-12T13:09:12.109Z,22.60
2018-07-12T13:11:40.857Z,22.80
2018-07-12T13:14:09.562Z,23.20
2018-07-12T13:16:38.246Z,22.60
2018-07-12T13:19:06.903Z,22.90
2018-07-12T13:21:35.634Z,23.60
2018-07-12T13:24:04.330Z,23.40
2018-07-12T13:26:33.030Z,23.90
2018-07-12T13:29:01.762Z,24.50
2018-07-12T13:31:30.453Z,24.90
2018-07-12T13:33:59.192Z,24.60
2018-07-12T13:36:27.877Z,24.10
2018-07-12T13:38:56.597Z,23.60
2018-07-12T13:41:25.256Z,22.80
2018-07-12T13:44:05.506Z,22.10
2018-07-12T13:46:34.169Z,22.10
2018-07-12T13:49:02.870Z,22.30
2018-07-12T13:51:31.588Z,22.40
2018-07-12T13:54:00.291Z,22.40
2018-07-12T13:56:29.006Z,22.10
2018-07-12T13:58:57.677Z,21.90
2018-07-12T14:01:26.386Z,21.60
2018-07-12T14:03:55.113Z,21.90
2018-07-12T14:06:24.085Z,22.00
2018-07-12T14:08:52.793Z,21.50
2018-07-12T14:11:21.512Z,21.70
2018-07-12T14:13:50.726Z,21.60
2018-07-12T14:16:19.428Z,21.90
2018-07-12T14:18:48.125Z,21.70
2018-07-12T14:21:16.935Z,21.50
2018-07-12T14:23:45.708Z,21.20
2018-07-12T14:26:14.425Z,21.40
2018-07-12T14:28:43.712Z,21.50
2018-07-12T14:31:12.389Z,21.70
2018-07-12T14:33:41.101Z,21.40
2018-07-12T14:36:09.806Z,21.40
2018-07-12T14:38:38.714Z,21.60
2018-07-12T14:41:07.401Z,21.60
2018-07-12T14:43:36.106Z,21.60
2018-07-12T14:46:04.784Z,21.70
2018-07-12T14:48:33.471Z,21.90
2018-07-12T14:51:02.222Z,22.20
2018-07-12T14:53:30.891Z,21.80
2018-07-12T14:55:59.632Z,21.80
2018-07-12T14:58:28.333Z,21.70
2018-07-12T15:00:57.014Z,21.90
2018-07-12T15:03:25.719Z,21.80
2018-07-12T15:05:54.389Z,21.70
2018-07-12T15:08:23.106Z,21.90
2018-07-12T15:10:51.787Z,22.00
2018-07-12T15:13:20.473Z,21.80
2018-07-12T15:15:49.152Z,22.10
2018-07-12T15:18:17.845Z,22.20
2018-07-12T15:20:46.565Z,22.20
2018-07-12T15:23:15.285Z,22.10
2018-07-12T15:25:44.008Z,22.30
2018-07-12T15:28:12.705Z,22.10
2018-07-12T15:30:41.397Z,22.20
2018-07-12T15:33:10.096Z,22.30
2018-07-12T15:35:38.807Z,22.50
2018-07-12T15:38:07.520Z,22.30
2018-07-12T15:40:36.234Z,21.90
2018-07-12T15:43:04.986Z,22.20
2018-07-12T15:45:33.655Z,22.30
2018-07-12T15:48:02.369Z,21.90
2018-07-12T15:50:31.050Z,21.90
2018-07-12T15:52:59.761Z,21.60
2018-07-12T15:55:28.458Z,21.40
2018-07-12T15:57:57.163Z,21.20
2018-07-12T16:00:25.901Z,21.30
2018-07-12T16:02:54.649Z,21.00
2018-07-12T16:05:23.377Z,21.00
2018-07-12T16:07:52.337Z,20.80
2018-07-12T16:10:21.009Z,20.60
2018-07-12T16:12:49.865Z,20.40
2018-07-12T16:15:18.570Z,20.20
2018-07-12T16:17:47.257Z,20.20
2018-07-12T16:20:15.948Z,19.90
2018-07-12T16:22:44.615Z,20.00
2018-07-12T16:25:13.338Z,19.90
2018-07-12T16:27:42.066Z,19.80
2018-07-12T16:30:10.772Z,19.60
2018-07-12T16:32:39.457Z,19.90
2018-07-12T16:35:08.230Z,19.40
2018-07-12T16:37:37.569Z,19.60
2018-07-12T16:40:06.233Z,19.60
2018-07-12T16:42:34.960Z,19.70
2018-07-12T16:45:03.635Z,19.80
2018-07-12T16:47:32.328Z,20.10
2018-07-12T16:50:01.023Z,20.20
2018-07-12T16:52:29.695Z,20.10
2018-07-12T16:54:58.366Z,20.20
2018-07-12T16:57:27.107Z,20.30
2018-07-12T16:59:55.815Z,20.10
2018-07-12T17:02:24.544Z,20.30
2018-07-12T17:04:53.247Z,20.20
2018-07-12T17:07:22.031Z,20.00
2018-07-12T17:09:50.703Z,20.20
2018-07-12T17:12:19.410Z,20.00
2018-07-12T17:14:48.080Z,19.90
2018-07-12T17:17:16.757Z,19.90
2018-07-12T17:19:45.501Z,19.80
2018-07-12T17:22:14.352Z,19.70
2018-07-12T17:24:43.237Z,19.90
2018-07-12T17:27:11.986Z,20.10
2018-07-12T17:29:40.664Z,20.30
2018-07-12T17:32:09.369Z,20.10
2018-07-12T17:34:38.090Z,20.30
2018-07-12T17:37:06.813Z,20.30
2018-07-12T17:39:35.509Z,20.20
2018-07-12T17:42:04.168Z,20.20
2018-07-12T17:44:32.882Z,20.30
2018-07-12T17:47:01.674Z,20.20
2018-07-12T17:49:30.408Z,20.00
2018-07-12T17:51:59.105Z,19.90
2018-07-12T17:54:27.788Z,20.10
2018-07-12T17:56:56.658Z,20.00
2018-07-12T17:59:25.424Z,19.80
2018-07-12T18:01:54.192Z,20.00
2018-07-12T18:04:22.932Z,20.10
2018-07-12T18:06:51.739Z,20.00
2018-07-12T18:09:20.468Z,20.20
2018-07-12T18:11:49.138Z,20.30
2018-07-12T18:14:17.874Z,20.30
2018-07-12T18:16:46.618Z,20.10
2018-07-12T18:19:15.307Z,20.20
2018-07-12T18:21:44.106Z,20.20
2018-07-12T18:24:12.772Z,20.20
2018-07-12T18:26:41.445Z,20.20
2018-07-12T18:29:10.154Z,20.50
2018-07-12T18:31:39.065Z,20.50
2018-07-12T18:34:07.877Z,20.40
2018-07-12T18:36:36.549Z,20.50
2018-07-12T18:39:06.828Z,20.30
2018-07-12T18:41:35.720Z,20.50
2018-07-12T18:44:04.654Z,20.50
2018-07-12T18:46:33.379Z,20.50
2018-07-12T18:49:02.044Z,20.70
2018-07-12T18:51:30.788Z,20.50
2018-07-12T18:53:59.460Z,20.30
2018-07-12T18:56:28.153Z,20.60
2018-07-12T18:58:56.855Z,20.80
2018-07-12T19:01:25.560Z,20.90
2018-07-12T19:03:54.286Z,20.70
2018-07-12T19:06:23.200Z,20.70
2018-07-12T19:08:52.004Z,20.60
2018-07-12T19:11:20.697Z,20.60
2018-07-12T19:13:49.392Z,20.80
2018-07-12T19:16:18.155Z,20.60
2018-07-12T19:18:46.852Z,20.80
2018-07-12T19:21:15.650Z,20.70
2018-07-12T19:23:44.349Z,20.40
2018-07-12T19:26:13.086Z,20.70
2018-07-12T19:28:41.787Z,20.70
2018-07-12T19:31:10.473Z,20.70
2018-07-12T19:33:39.247Z,20.40
2018-07-12T19:36:07.909Z,20.40
2018-07-12T19:38:36.629Z,20.40
2018-07-12T19:41:05.340Z,20.60
2018-07-12T19:43:34.087Z,20.30
2018-07-12T19:46:02.803Z,20.30
2018-07-12T19:48:31.494Z,20.50
2018-07-12T19:51:00.228Z,20.30
2018-07-12T19:53:29.216Z,20.60
2018-07-12T19:55:57.939Z,20.50
2018-07-12T19:58:26.624Z,20.50
2018-07-12T20:00:55.319Z,19.80
2018-07-12T20:03:24.089Z,20.30
2018-07-12T20:05:52.760Z,20.20
2018-07-12T20:08:21.445Z,20.20
2018-07-12T20:10:50.151Z,20.30
2018-07-12T20:13:19.048Z,20.20
2018-07-12T20:15:47.791Z,20.30
2018-07-12T20:18:16.410Z,20.30
2018-07-12T20:20:45.097Z,20.10
2018-07-12T20:23:13.810Z,20.30
2018-07-12T20:25:42.590Z,20.30
2018-07-12T20:28:11.310Z,19.80
2018-07-12T20:30:39.988Z,20.00
2018-07-12T20:33:08.663Z,20.30
2018-07-12T20:35:37.374Z,20.10
2018-07-12T20:38:06.073Z,20.10
2018-07-12T20:40:35.001Z,20.40
2018-07-12T20:43:03.753Z,20.20
2018-07-12T20:45:32.433Z,20.10
2018-07-12T20:48:01.099Z,20.20
2018-07-12T20:50:29.800Z,20.20
2018-07-12T20:52:58.505Z,20.30
2018-07-12T20:55:27.206Z,20.00
2018-07-12T20:57:55.940Z,20.30
2018-07-12T21:00:24.647Z,20.20
2018-07-12T21:02:53.354Z,20.00
2018-07-12T21:05:22.070Z,20.00
2018-07-12T21:07:50.746Z,19.90
2018-07-12T21:10:19.411Z,20.20
2018-07-12T21:12:48.121Z,19.20
2018-07-12T21:15:16.801Z,19.80
2018-07-12T21:17:45.494Z,19.40
2018-07-12T21:20:14.213Z,20.00
2018-07-12T21:22:42.910Z,20.10
2018-07-12T21:25:11.703Z,20.40
2018-07-12T21:27:40.418Z,20.20
2018-07-12T21:30:10.846Z,20.20
2018-07-12T21:32:39.530Z,20.30
2018-07-12T21:35:08.497Z,20.50
2018-07-12T21:37:37.191Z,20.20
2018-07-12T21:40:05.954Z,20.40
2018-07-12T21:42:34.629Z,20.20
2018-07-12T21:45:03.452Z,20.10
2018-07-12T21:47:32.157Z,20.20
2018-07-12T21:50:00.877Z,20.50
2018-07-12T21:52:29.556Z,20.10
2018-07-12T21:54:58.284Z,20.20
2018-07-12T21:57:26.956Z,20.30
2018-07-12T21:59:55.658Z,19.90
2018-07-12T22:02:24.362Z,20.00
2018-07-12T22:04:53.176Z,20.20
2018-07-12T22:08:02.361Z,19.60
2018-07-12T22:10:31.045Z,20.30
2018-07-12T22:12:59.752Z,20.50
2018-07-12T22:15:28.498Z,20.60
2018-07-12T22:17:57.253Z,20.50
2018-07-12T22:20:26.035Z,20.40
2018-07-12T22:22:54.701Z,20.50
2018-07-12T22:25:23.429Z,20.50
2018-07-12T22:27:52.125Z,20.40
2018-07-12T22:30:20.813Z,20.10
2018-07-12T22:32:49.568Z,20.40
2018-07-12T22:35:18.396Z,20.10
2018-07-12T22:37:47.449Z,20.20
2018-07-12T22:40:16.158Z,20.10
2018-07-12T22:42:45.081Z,19.20
2018-07-12T22:45:13.796Z,19.20
2018-07-12T22:47:42.513Z,19.90
2018-07-12T22:50:11.210Z,19.80
2018-07-12T22:52:39.905Z,19.70
2018-07-12T22:55:08.639Z,19.70
2018-07-12T22:57:37.311Z,19.70
2018-07-12T23:00:06.265Z,19.40
2018-07-12T23:02:34.998Z,20.00
2018-07-12T23:05:03.888Z,20.00
2018-07-12T23:07:32.584Z,20.40
2018-07-12T23:10:01.295Z,20.10
2018-07-12T23:12:29.983Z,20.10
2018-07-12T23:14:58.662Z,19.90
2018-07-12T23:17:27.328Z,20.30
2018-07-12T23:19:56.043Z,19.70
2018-07-12T23:22:24.757Z,20.00
2018-07-12T23:24:53.532Z,20.10
2018-07-12T23:27:22.105Z,20.10
2018-07-12T23:29:50.780Z,20.10
2018-07-12T23:32:19.488Z,19.90
2018-07-12T23:34:48.204Z,20.30
2018-07-12T23:37:16.925Z,20.30
2018-07-12T23:39:45.654Z,19.90
2018-07-12T23:42:14.353Z,20.30
2018-07-12T23:44:43.077Z,20.30
2018-07-12T23:47:11.753Z,20.40
2018-07-12T23:49:40.474Z,20.10
2018-07-12T23:52:09.213Z,20.40
2018-07-12T23:54:37.881Z,20.50
2018-07-12T23:57:06.564Z,20.00
2018-07-12T23:59:35.248Z,20.00
